Time;durP1;ratioP1;P1;durP2;ratioP2;P2;SDS_P1;SDS_P2;PMS_P1;PMS_P2;Temp;Humidity;BMP_temperature;BMP_pressure;BME280_temperature;BME280_humidity;BME280_pressure;Samples;Min_cycle;Max_cycle;Signal;HPM_P1;HPM_P2
2023/01/13 00:01:16;;;;;;;22.23;5.95;;;;;;;;;;5048104;28;20032;-65
2023/01/13 00:03:42;;;;;;;19.48;5.55;;;;;;;;;;5053776;28;20028;-65
2023/01/13 00:06:12;;;;;;;20.30;5.45;;;;;;;;;;5049247;28;20040;-65
2023/01/13 00:08:38;;;;;;;21.90;4.90;;;;;;;;;;5053593;28;20589;-65
2023/01/13 00:11:04;;;;;;;25.20;5.15;;;;;;;;;;5053523;28;20032;-65
2023/01/13 00:13:32;;;;;;;24.55;5.28;;;;;;;;;;5052924;28;20036;-65
2023/01/13 00:15:59;;;;;;;18.63;4.90;;;;;;;;;;5049999;28;20028;-64
2023/01/13 00:18:25;;;;;;;19.20;4.50;;;;;;;;;;5053526;28;20028;-64
2023/01/13 00:20:59;;;;;;;22.58;4.65;;;;;;;;;;5044651;28;20024;-64
2023/01/13 00:23:26;;;;;;;15.93;4.03;;;;;;;;;;5042897;28;20660;-64
2023/01/13 00:25:54;;;;;;;20.52;4.63;;;;;;;;;;5046277;28;20473;-64
2023/01/13 00:28:20;;;;;;;20.17;4.45;;;;;;;;;;5045356;28;20024;-64
2023/01/13 00:30:46;;;;;;;20.45;4.60;;;;;;;;;;5047760;28;20032;-63
2023/01/13 00:33:13;;;;;;;23.80;6.80;;;;;;;;;;5039996;28;20344;-64
2023/01/13 00:35:39;;;;;;;20.10;5.70;;;;;;;;;;5046554;28;20067;-63
2023/01/13 00:38:05;;;;;;;23.58;4.95;;;;;;;;;;5041466;28;20055;-64
2023/01/13 00:40:31;;;;;;;23.85;5.32;;;;;;;;;;5045625;28;20034;-64
2023/01/13 00:43:39;;;;;;;20.45;4.90;;;;;;;;;;5045985;28;20138;-64
2023/01/13 00:45:46;;;;;;;18.20;4.22;;;;;;;;;;5042825;28;20079;-64
2023/01/13 00:48:12;;;;;;;18.02;3.83;;;;;;;;;;5042563;28;20056;-64
2023/01/13 00:50:38;;;;;;;25.08;5.05;;;;;;;;;;5046764;28;20032;-66
2023/01/13 00:53:05;;;;;;;23.48;4.47;;;;;;;;;;5041951;28;20736;-66
2023/01/13 00:55:31;;;;;;;19.23;4.55;;;;;;;;;;5041374;28;20041;-64
2023/01/13 00:58:02;;;;;;;19.15;4.15;;;;;;;;;;5041676;28;20361;-64
2023/01/13 01:00:29;;;;;;;21.15;4.45;;;;;;;;;;5042903;28;20416;-64
2023/01/13 01:02:55;;;;;;;21.20;4.35;;;;;;;;;;5047589;28;20183;-63
2023/01/13 01:05:21;;;;;;;18.48;4.20;;;;;;;;;;5041429;28;20841;-64
2023/01/13 01:07:48;;;;;;;20.33;4.57;;;;;;;;;;5044015;28;21484;-64
2023/01/13 01:10:14;;;;;;;20.83;4.55;;;;;;;;;;5042262;28;20044;-63
2023/01/13 01:12:40;;;;;;;18.45;4.13;;;;;;;;;;5041174;28;20043;-65
2023/01/13 01:15:08;;;;;;;19.55;4.10;;;;;;;;;;5038843;28;20090;-64
2023/01/13 01:17:35;;;;;;;24.55;6.47;;;;;;;;;;5044548;28;20027;-63
2023/01/13 01:20:01;;;;;;;29.33;8.70;;;;;;;;;;5041007;28;20036;-63
2023/01/13 01:22:27;;;;;;;18.90;5.70;;;;;;;;;;5040695;28;20785;-65
2023/01/13 01:24:53;;;;;;;19.88;5.60;;;;;;;;;;5046975;28;20411;-65
2023/01/13 01:27:19;;;;;;;19.35;5.20;;;;;;;;;;5040246;28;20028;-65
2023/01/13 01:29:46;;;;;;;19.02;4.57;;;;;;;;;;5045817;28;20075;-65
2023/01/13 01:32:12;;;;;;;21.90;4.63;;;;;;;;;;5042464;28;20039;-65
2023/01/13 01:34:38;;;;;;;23.88;4.47;;;;;;;;;;5041846;28;21050;-66
2023/01/13 01:37:04;;;;;;;19.58;4.00;;;;;;;;;;5038101;28;20039;-65
2023/01/13 01:39:30;;;;;;;;;;;;;;;;;;5045022;28;20040;-64
2023/01/13 01:44:41;;;;;;;23.80;4.45;;;;;;;;;;5043071;28;20051;-63
2023/01/13 01:47:12;;;;;;;18.65;4.20;;;;;;;;;;5040453;28;20035;-66
2023/01/13 01:49:38;;;;;;;22.92;4.20;;;;;;;;;;5045511;28;20119;-65
2023/01/13 01:52:25;;;;;;;21.67;4.57;;;;;;;;;;5040957;28;20024;-65
2023/01/13 01:55:06;;;;;;;20.65;4.53;;;;;;;;;;5044683;28;20051;-66
2023/01/13 01:57:43;;;;;;;21.48;4.03;;;;;;;;;;5041087;28;20028;-66
2023/01/13 02:00:10;;;;;;;21.98;4.07;;;;;;;;;;5038659;28;20103;-65
2023/01/13 02:02:36;;;;;;;;;;;;;;;;;;5042996;28;20414;-66
2023/01/13 02:05:02;;;;;;;16.45;4.00;;;;;;;;;;5041355;28;19920;-68
2023/01/13 02:07:30;;;;;;;19.13;4.07;;;;;;;;;;5046999;28;20028;-68
2023/01/13 02:09:58;;;;;;;22.73;4.60;;;;;;;;;;5043533;28;20035;-65
2023/01/13 02:12:29;;;;;;;18.30;3.72;;;;;;;;;;5044628;28;20469;-67
2023/01/13 02:15:18;;;;;;;20.50;4.07;;;;;;;;;;5045786;28;20020;-67
2023/01/13 02:17:47;;;;;;;21.45;4.45;;;;;;;;;;5046142;28;20465;-67
2023/01/13 02:20:13;;;;;;;23.20;3.85;;;;;;;;;;5046080;28;20540;-67
2023/01/13 02:23:03;;;;;;;20.45;4.30;;;;;;;;;;5044165;28;20863;-67
2023/01/13 02:25:55;;;;;;;20.58;4.15;;;;;;;;;;5040768;28;20173;-67
2023/01/13 02:31:40;;;;;;;22.65;4.15;;;;;;;;;;5038945;28;20154;-67
2023/01/13 02:31:41;;;;;;;18.75;3.65;;;;;;;;;;5047556;28;20282;-67
2023/01/13 02:34:17;;;;;;;20.73;4.55;;;;;;;;;;5038777;28;20816;-67
2023/01/13 02:36:50;;;;;;;21.38;4.20;;;;;;;;;;5044419;28;20032;-67
2023/01/13 02:39:25;;;;;;;20.88;4.38;;;;;;;;;;5037656;28;20131;-67
2023/01/13 02:44:45;;;;;;;17.48;3.60;;;;;;;;;;5043583;28;20036;-67
2023/01/13 02:47:28;;;;;;;18.15;4.30;;;;;;;;;;5037972;28;20587;-67
2023/01/13 02:49:58;;;;;;;22.00;3.97;;;;;;;;;;5045713;28;20438;-67
2023/01/13 02:52:47;;;;;;;18.60;4.20;;;;;;;;;;5041108;28;20563;-67
2023/01/13 02:55:15;;;;;;;16.58;3.90;;;;;;;;;;5039997;28;20044;-67
2023/01/13 02:57:42;;;;;;;20.13;4.47;;;;;;;;;;5046004;28;20028;-67
2023/01/13 03:00:10;;;;;;;18.75;4.18;;;;;;;;;;5040825;28;20027;-67
2023/01/13 03:02:37;;;;;;;21.30;4.10;;;;;;;;;;5044089;28;20077;-67
2023/01/13 03:05:04;;;;;;;24.48;4.03;;;;;;;;;;5041053;28;20039;-67
2023/01/13 03:07:52;;;;;;;23.35;4.68;;;;;;;;;;5044078;28;20424;-67
2023/01/13 03:10:27;;;;;;;23.02;4.03;;;;;;;;;;5047087;28;20145;-67
2023/01/13 03:13:11;;;;;;;20.38;3.90;;;;;;;;;;5049948;28;20035;-67
2023/01/13 03:15:48;;;;;;;18.42;3.20;;;;;;;;;;5045792;28;20607;-67
2023/01/13 03:18:44;;;;;;;22.05;4.03;;;;;;;;;;5044941;28;20063;-67
2023/01/13 03:21:13;;;;;;;22.98;3.60;;;;;;;;;;5039548;28;20588;-67
2023/01/13 03:23:55;;;;;;;19.10;3.90;;;;;;;;;;5049285;28;20031;-67
2023/01/13 03:26:26;;;;;;;19.77;4.07;;;;;;;;;;5045138;28;20036;-67
2023/01/13 03:28:55;;;;;;;20.50;3.83;;;;;;;;;;5042084;28;20087;-67
2023/01/13 03:31:25;;;;;;;21.65;4.22;;;;;;;;;;5044163;28;20031;-67
2023/01/13 03:33:55;;;;;;;22.90;4.28;;;;;;;;;;5047134;28;20034;-67
2023/01/13 03:36:24;;;;;;;19.15;3.45;;;;;;;;;;5044879;28;20509;-67
2023/01/13 03:38:56;;;;;;;21.70;4.25;;;;;;;;;;5051584;28;20031;-67
2023/01/13 03:41:29;;;;;;;24.75;4.38;;;;;;;;;;5050506;28;20022;-67
2023/01/13 03:44:21;;;;;;;30.55;4.63;;;;;;;;;;5048352;28;20115;-67
2023/01/13 03:47:06;;;;;;;24.40;4.47;;;;;;;;;;5049940;28;20031;-68
2023/01/13 03:49:36;;;;;;;20.98;3.97;;;;;;;;;;5044336;28;20356;-67
2023/01/13 03:52:05;;;;;;;23.67;4.40;;;;;;;;;;5044509;28;20039;-67
2023/01/13 03:54:33;;;;;;;25.50;4.93;;;;;;;;;;5043289;28;20318;-66
2023/01/13 03:57:03;;;;;;;18.90;4.18;;;;;;;;;;5044854;28;20562;-67
2023/01/13 03:59:32;;;;;;;19.60;3.60;;;;;;;;;;5044474;28;20223;-67
2023/01/13 04:02:03;;;;;;;23.00;3.97;;;;;;;;;;5045449;28;20059;-67
2023/01/13 04:04:32;;;;;;;23.98;4.72;;;;;;;;;;5044659;28;20024;-67
2023/01/13 04:07:07;;;;;;;19.95;3.80;;;;;;;;;;5045892;28;20068;-67
2023/01/13 04:09:40;;;;;;;20.17;3.50;;;;;;;;;;5047731;28;20573;-67
2023/01/13 04:12:07;;;;;;;21.92;4.35;;;;;;;;;;5043695;28;20732;-67
2023/01/13 04:14:33;;;;;;;19.80;3.67;;;;;;;;;;5048477;28;20045;-67
2023/01/13 04:16:59;;;;;;;21.73;4.25;;;;;;;;;;5044243;28;20032;-67
2023/01/13 04:19:25;;;;;;;18.98;4.50;;;;;;;;;;5044572;28;20352;-67
2023/01/13 04:21:51;;;;;;;22.05;4.38;;;;;;;;;;5047284;28;20059;-67
2023/01/13 04:24:18;;;;;;;24.17;4.30;;;;;;;;;;5042939;28;20133;-67
2023/01/13 04:26:44;;;;;;;19.55;3.92;;;;;;;;;;5046286;28;20978;-67
2023/01/13 04:29:10;;;;;;;19.63;4.03;;;;;;;;;;5042367;28;20465;-67
2023/01/13 04:31:37;;;;;;;20.67;4.28;;;;;;;;;;5048053;28;20032;-67
2023/01/13 04:34:03;;;;;;;20.42;3.78;;;;;;;;;;5046410;28;20148;-67
2023/01/13 04:36:29;;;;;;;19.15;4.07;;;;;;;;;;5049810;28;20036;-67
2023/01/13 04:38:55;;;;;;;23.73;4.50;;;;;;;;;;5047858;28;20565;-67
2023/01/13 04:41:21;;;;;;;20.52;3.95;;;;;;;;;;5042568;28;20032;-67
2023/01/13 04:43:48;;;;;;;24.17;4.60;;;;;;;;;;5048999;28;20031;-67
2023/01/13 04:46:14;;;;;;;21.50;3.88;;;;;;;;;;5044761;28;20039;-68
2023/01/13 04:48:40;;;;;;;21.02;4.22;;;;;;;;;;5046677;28;20382;-71
2023/01/13 04:51:06;;;;;;;25.33;4.32;;;;;;;;;;5041944;28;20387;-66
2023/01/13 04:53:32;;;;;;;22.90;4.22;;;;;;;;;;5049124;28;20039;-66
2023/01/13 04:55:58;;;;;;;18.50;3.92;;;;;;;;;;5046446;28;20403;-66
2023/01/13 04:58:25;;;;;;;27.15;4.80;;;;;;;;;;5043653;28;20024;-66
2023/01/13 05:00:51;;;;;;;21.33;4.05;;;;;;;;;;5047427;28;20314;-67
2023/01/13 05:03:17;;;;;;;20.98;4.32;;;;;;;;;;5043558;28;24127;-68
2023/01/13 05:05:43;;;;;;;22.27;4.15;;;;;;;;;;5044714;28;20197;-67
2023/01/13 05:08:09;;;;;;;19.65;3.85;;;;;;;;;;5042192;28;20245;-67
2023/01/13 05:10:36;;;;;;;18.27;3.80;;;;;;;;;;5047727;28;20035;-67
2023/01/13 05:18:32;;;;;;;19.52;3.78;;;;;;;;;;5043311;28;20236;-67
2023/01/13 05:20:58;;;;;;;22.48;3.88;;;;;;;;;;5041381;28;20062;-67
2023/01/13 05:26:09;;;;;;;23.50;4.47;;;;;;;;;;5038850;28;20150;-67
2023/01/13 05:28:35;;;;;;;19.95;4.72;;;;;;;;;;5045694;28;20083;-66
2023/01/13 05:31:01;;;;;;;21.73;4.18;;;;;;;;;;5037554;28;20378;-66
2023/01/13 05:33:28;;;;;;;20.23;4.38;;;;;;;;;;5043130;28;21225;-66
2023/01/13 05:35:54;;;;;;;20.52;4.00;;;;;;;;;;5045212;28;20036;-67
2023/01/13 05:38:20;;;;;;;24.90;4.68;;;;;;;;;;5043670;28;20505;-66
2023/01/13 05:43:32;;;;;;;21.25;4.72;;;;;;;;;;5043992;28;19919;-66
2023/01/13 05:46:08;;;;;;;21.83;4.60;;;;;;;;;;5041247;28;20143;-66
2023/01/13 05:48:39;;;;;;;19.90;4.93;;;;;;;;;;5042016;28;20328;-66
2023/01/13 05:51:06;;;;;;;20.02;4.97;;;;;;;;;;5040855;28;20032;-66
2023/01/13 05:53:32;;;;;;;22.00;5.35;;;;;;;;;;5041647;28;20043;-66
2023/01/13 05:55:59;;;;;;;25.70;7.00;;;;;;;;;;5044477;28;20592;-66
2023/01/13 05:58:26;;;;;;;19.13;5.65;;;;;;;;;;5044822;28;20604;-66
2023/01/13 06:00:53;;;;;;;23.60;5.70;;;;;;;;;;5046806;28;20114;-66
2023/01/13 06:03:19;;;;;;;21.10;5.20;;;;;;;;;;5043937;28;20028;-67
2023/01/13 06:05:46;;;;;;;25.13;5.07;;;;;;;;;;5045223;28;20301;-67
2023/01/13 06:08:13;;;;;;;17.95;4.80;;;;;;;;;;5044351;28;20092;-67
2023/01/13 06:10:39;;;;;;;21.00;5.40;;;;;;;;;;5042624;28;20028;-67
2023/01/13 06:13:05;;;;;;;21.02;5.70;;;;;;;;;;5044834;28;20058;-67
2023/01/13 06:15:31;;;;;;;;;;;;;;;;;;5044277;28;20123;-67
2023/01/13 06:17:57;;;;;;;21.05;5.30;;;;;;;;;;5040049;28;20281;-67
2023/01/13 06:20:24;;;;;;;17.98;5.22;;;;;;;;;;5041526;28;20028;-67
2023/01/13 06:22:50;;;;;;;;;;;;;;;;;;5043689;28;20316;-68
2023/01/13 06:25:22;;;;;;;21.92;4.90;;;;;;;;;;5038751;28;19912;-67
2023/01/13 06:27:48;;;;;;;22.33;5.60;;;;;;;;;;5047448;28;20020;-66
2023/01/13 06:30:14;;;;;;;;;;;;;;;;;;5043133;28;20036;-66
2023/01/13 06:32:43;;;;;;;20.52;5.68;;;;;;;;;;5056077;28;21805;-66
2023/01/13 06:35:11;;;;;;;19.63;5.60;;;;;;;;;;5045351;28;20042;-66
2023/01/13 06:37:38;;;;;;;21.50;6.03;;;;;;;;;;5046463;28;20491;-66
2023/01/13 06:40:04;;;;;;;;;;;;;;;;;;5042311;28;20024;-66
2023/01/13 06:45:17;;;;;;;26.77;7.50;;;;;;;;;;5045329;28;20042;-66
2023/01/13 06:47:43;;;;;;;;;;;;;;;;;;5048008;28;20028;-66
2023/01/13 06:50:10;;;;;;;23.88;7.55;;;;;;;;;;5047822;28;19918;-67
2023/01/13 06:52:36;;;;;;;;;;;;;;;;;;5048100;28;20024;-66
2023/01/13 06:55:02;;;;;;;20.30;6.00;;;;;;;;;;5048206;28;20334;-68
2023/01/13 06:57:28;;;;;;;;;;;;;;;;;;5048405;28;20130;-68
2023/01/13 06:59:54;;;;;;;26.73;6.65;;;;;;;;;;5048185;28;20107;-67
2023/01/13 07:02:21;;;;;;;24.80;6.50;;;;;;;;;;5041738;28;20510;-67
2023/01/13 07:04:47;;;;;;;19.55;5.50;;;;;;;;;;5050082;28;20059;-67
2023/01/13 07:07:14;;;;;;;22.92;6.35;;;;;;;;;;5045228;28;20036;-68
2023/01/13 07:09:40;;;;;;;38.40;7.28;;;;;;;;;;5054740;28;20043;-66
2023/01/13 07:12:06;;;;;;;31.17;5.97;;;;;;;;;;5042232;28;20024;-66
2023/01/13 07:17:23;;;;;;;25.60;6.60;;;;;;;;;;5044466;28;20162;-67
2023/01/13 07:19:50;;;;;;;22.17;6.55;;;;;;;;;;5046204;28;20027;-66
2023/01/13 07:22:16;;;;;;;24.20;6.50;;;;;;;;;;5045700;28;20505;-66
2023/01/13 07:24:43;;;;;;;28.63;8.50;;;;;;;;;;5048816;28;20053;-66
2023/01/13 07:27:09;;;;;;;27.08;7.20;;;;;;;;;;5043058;28;20711;-66
2023/01/13 07:29:36;;;;;;;21.90;6.35;;;;;;;;;;5047584;28;20032;-67
2023/01/13 07:32:02;;;;;;;18.48;6.03;;;;;;;;;;5042414;28;20123;-68
2023/01/13 07:34:28;;;;;;;22.45;5.82;;;;;;;;;;5044648;28;20563;-67
2023/01/13 07:36:54;;;;;;;24.45;6.10;;;;;;;;;;5048615;28;20070;-68
2023/01/13 07:39:20;;;;;;;17.30;4.82;;;;;;;;;;5044059;28;20055;-67
2023/01/13 07:44:31;;;;;;;18.13;6.18;;;;;;;;;;5042954;28;20244;-67
2023/01/13 07:46:57;;;;;;;23.40;6.72;;;;;;;;;;5049801;28;20478;-67
2023/01/13 07:49:24;;;;;;;24.35;6.40;;;;;;;;;;5047287;28;20152;-68
2023/01/13 07:51:50;;;;;;;20.73;6.32;;;;;;;;;;5048876;28;20032;-66
2023/01/13 07:54:16;;;;;;;21.45;7.57;;;;;;;;;;5043622;28;20049;-69
2023/01/13 07:56:42;;;;;;;23.92;6.93;;;;;;;;;;5045275;28;20036;-67
2023/01/13 07:59:08;;;;;;;20.02;6.45;;;;;;;;;;5045993;28;20153;-66
2023/01/13 08:01:34;;;;;;;20.77;6.28;;;;;;;;;;5049028;28;20660;-66
2023/01/13 08:04:00;;;;;;;16.52;5.32;;;;;;;;;;5040976;28;20659;-66
2023/01/13 08:06:27;;;;;;;17.67;5.70;;;;;;;;;;5048861;28;20202;-66
2023/01/13 08:08:53;;;;;;;23.08;6.63;;;;;;;;;;5044423;28;20101;-66
2023/01/13 08:11:19;;;;;;;19.63;7.68;;;;;;;;;;5046368;28;20063;-67
2023/01/13 08:13:45;;;;;;;;;;;;;;;;;;5047550;28;20171;-66
2023/01/13 08:16:12;;;;;;;26.30;10.13;;;;;;;;;;5043311;28;20287;-67
2023/01/13 08:18:39;;;;;;;24.48;9.68;;;;;;;;;;5049435;28;20557;-67
2023/01/13 08:21:10;;;;;;;20.92;8.80;;;;;;;;;;5044102;28;20475;-66
2023/01/13 08:23:36;;;;;;;25.60;8.40;;;;;;;;;;5050567;28;20096;-67
2023/01/13 08:26:07;;;;;;;22.45;7.93;;;;;;;;;;5043817;28;20657;-68
2023/01/13 08:28:33;;;;;;;20.40;7.30;;;;;;;;;;5049431;28;20031;-66
2023/01/13 08:31:00;;;;;;;22.67;7.35;;;;;;;;;;5044703;28;20250;-65
2023/01/13 08:33:27;;;;;;;22.65;7.88;;;;;;;;;;5044644;28;20027;-66
2023/01/13 08:35:54;;;;;;;21.48;6.70;;;;;;;;;;5046981;28;20595;-66
2023/01/13 08:38:20;;;;;;;;;;;;;;;;;;5042272;28;20433;-67
2023/01/13 08:40:46;;;;;;;25.83;7.18;;;;;;;;;;5043547;28;19912;-68
2023/01/13 08:43:12;;;;;;;21.38;6.55;;;;;;;;;;5041337;28;20036;-67
2023/01/13 08:45:38;;;;;;;22.30;6.57;;;;;;;;;;5042107;28;20108;-67
2023/01/13 08:48:04;;;;;;;21.60;6.38;;;;;;;;;;5042773;28;20036;-67
2023/01/13 08:50:31;;;;;;;19.40;5.65;;;;;;;;;;5043563;28;20040;-66
2023/01/13 08:52:57;;;;;;;19.90;5.15;;;;;;;;;;5042448;28;20658;-68
2023/01/13 08:55:23;;;;;;;18.02;5.10;;;;;;;;;;5041385;28;20040;-65
2023/01/13 08:57:49;;;;;;;16.10;4.65;;;;;;;;;;5042052;28;20115;-66
2023/01/13 09:00:16;;;;;;;13.52;4.80;;;;;;;;;;5039319;28;20036;-66
2023/01/13 09:02:42;;;;;;;16.27;4.25;;;;;;;;;;5044404;28;20033;-66
2023/01/13 09:05:09;;;;;;;17.67;4.13;;;;;;;;;;5041923;28;20383;-66
2023/01/13 09:07:36;;;;;;;16.98;4.40;;;;;;;;;;5043762;28;20215;-66
2023/01/13 09:10:02;;;;;;;16.40;4.97;;;;;;;;;;5038760;28;20035;-66
2023/01/13 09:15:17;;;;;;;15.88;5.13;;;;;;;;;;5039597;28;20043;-68
2023/01/13 09:17:43;;;;;;;14.00;5.32;;;;;;;;;;5038237;28;20083;-66
2023/01/13 09:20:09;;;;;;;;;;;;;;;;;;5042381;28;20263;-68
2023/01/13 09:22:36;;;;;;;17.88;5.45;;;;;;;;;;5043982;28;19911;-66
2023/01/13 09:25:02;;;;;;;16.33;4.80;;;;;;;;;;5041055;28;20028;-68
2023/01/13 09:27:29;;;;;;;18.48;6.13;;;;;;;;;;5044383;28;20173;-67
2023/01/13 09:29:55;;;;;;;17.15;5.30;;;;;;;;;;5043269;28;20067;-66
2023/01/13 09:32:21;;;;;;;15.02;5.13;;;;;;;;;;5041318;28;20025;-66
2023/01/13 09:35:00;;;;;;;13.57;5.00;;;;;;;;;;5046980;28;20036;-67
2023/01/13 09:37:27;;;;;;;18.58;6.22;;;;;;;;;;5046944;28;20054;-66
2023/01/13 09:39:53;;;;;;;18.48;6.15;;;;;;;;;;5042407;28;20029;-66
2023/01/13 09:45:25;;;;;;;16.98;5.90;;;;;;;;;;5043554;28;20023;-66
2023/01/13 09:48:00;;;;;;;17.70;6.28;;;;;;;;;;5046599;28;20710;-67
2023/01/13 09:50:29;;;;;;;17.77;7.20;;;;;;;;;;5047490;28;20801;-66
2023/01/13 09:52:56;;;;;;;17.73;7.45;;;;;;;;;;5048288;28;20050;-67
2023/01/13 09:55:32;;;;;;;15.07;5.28;;;;;;;;;;5040471;28;20150;-68
2023/01/13 09:58:00;;;;;;;18.27;5.32;;;;;;;;;;5042042;28;20312;-68
2023/01/13 10:00:28;;;;;;;13.50;4.90;;;;;;;;;;5043808;28;20041;-68
2023/01/13 10:02:55;;;;;;;14.38;5.72;;;;;;;;;;5042500;28;20410;-68
2023/01/13 10:05:27;;;;;;;13.02;4.45;;;;;;;;;;5039472;28;20028;-68
2023/01/13 10:07:58;;;;;;;14.20;4.40;;;;;;;;;;5038015;28;20028;-68
2023/01/13 10:10:35;;;;;;;14.40;4.70;;;;;;;;;;5044710;28;20725;-68
2023/01/13 10:13:14;;;;;;;16.90;4.95;;;;;;;;;;5042202;28;20042;-68
2023/01/13 10:15:44;;;;;;;11.50;4.25;;;;;;;;;;5044538;28;20104;-68
2023/01/13 10:18:18;;;;;;;13.70;4.53;;;;;;;;;;5041165;28;20417;-68
2023/01/13 10:20:47;;;;;;;12.90;4.25;;;;;;;;;;5040210;28;20472;-66
2023/01/13 10:23:33;;;;;;;16.98;4.95;;;;;;;;;;5038700;28;20119;-67
2023/01/13 10:25:59;;;;;;;12.23;4.55;;;;;;;;;;5038275;28;20712;-67
2023/01/13 10:28:25;;;;;;;11.73;3.53;;;;;;;;;;5046690;28;20063;-67
2023/01/13 10:30:51;;;;;;;15.05;5.00;;;;;;;;;;5043449;28;20391;-69
2023/01/13 10:33:19;;;;;;;11.90;3.92;;;;;;;;;;5038803;28;20127;-67
2023/01/13 10:35:56;;;;;;;13.10;3.40;;;;;;;;;;5038697;28;20063;-67
2023/01/13 10:38:28;;;;;;;10.60;3.67;;;;;;;;;;5044721;28;20445;-67
2023/01/13 10:40:54;;;;;;;10.88;3.42;;;;;;;;;;5045227;28;20020;-67
2023/01/13 10:43:21;;;;;;;12.75;3.95;;;;;;;;;;5043605;28;20041;-69
2023/01/13 10:45:52;;;;;;;13.68;4.13;;;;;;;;;;5041425;28;20040;-67
2023/01/13 10:48:18;;;;;;;13.15;3.70;;;;;;;;;;5042897;28;20206;-69
2023/01/13 10:50:47;;;;;;;12.70;3.47;;;;;;;;;;5041072;28;20029;-67
2023/01/13 10:53:22;;;;;;;9.98;2.90;;;;;;;;;;5042982;28;20076;-69
2023/01/13 10:56:00;;;;;;;13.18;3.58;;;;;;;;;;5043614;28;20028;-67
2023/01/13 10:58:26;;;;;;;16.38;3.55;;;;;;;;;;5044059;28;20097;-67
2023/01/13 11:01:04;;;;;;;14.80;3.65;;;;;;;;;;5043040;28;20047;-67
2023/01/13 11:03:40;;;;;;;11.65;4.10;;;;;;;;;;5041520;28;20020;-68
2023/01/13 11:06:07;;;;;;;13.95;4.35;;;;;;;;;;5041582;28;20036;-68
2023/01/13 11:09:01;;;;;;;14.18;4.00;;;;;;;;;;5044421;28;20132;-69
2023/01/13 11:11:31;;;;;;;14.43;4.63;;;;;;;;;;5041914;28;20044;-67
2023/01/13 11:16:48;;;;;;;19.00;5.43;;;;;;;;;;5045529;28;20148;-67
2023/01/13 11:19:17;;;;;;;15.93;5.28;;;;;;;;;;5044528;28;20059;-67
2023/01/13 11:21:48;;;;;;;15.18;4.65;;;;;;;;;;5045360;28;20039;-67
2023/01/13 11:24:26;;;;;;;13.60;4.30;;;;;;;;;;5039449;28;20035;-67
2023/01/13 11:27:06;;;;;;;18.52;4.40;;;;;;;;;;5040507;28;20036;-67
2023/01/13 11:29:41;;;;;;;54.38;9.70;;;;;;;;;;5040645;28;20375;-69
2023/01/13 11:32:21;;;;;;;30.03;6.17;;;;;;;;;;5043346;28;20144;-67
2023/01/13 11:34:51;;;;;;;42.90;7.22;;;;;;;;;;5051427;28;20047;-68
2023/01/13 11:37:25;;;;;;;16.45;4.85;;;;;;;;;;5046952;28;20382;-68
2023/01/13 11:39:52;;;;;;;19.00;4.65;;;;;;;;;;5044898;28;20448;-67
2023/01/13 11:42:31;;;;;;;18.08;4.43;;;;;;;;;;5045153;28;22195;-67
2023/01/13 11:44:58;;;;;;;472.20;59.40;;;;;;;;;;5050950;28;20043;-68
2023/01/13 11:47:25;;;;;;;64.70;10.55;;;;;;;;;;5044333;28;20111;-67
2023/01/13 11:49:52;;;;;;;35.85;7.20;;;;;;;;;;5044676;28;20093;-67
2023/01/13 11:52:32;;;;;;;28.80;5.13;;;;;;;;;;5045595;28;20450;-67
2023/01/13 11:55:00;;;;;;;18.35;4.53;;;;;;;;;;5050148;28;20532;-68
2023/01/13 11:57:45;;;;;;;23.15;4.65;;;;;;;;;;5047375;28;20449;-67
2023/01/13 12:00:20;;;;;;;117.55;18.65;;;;;;;;;;5042219;28;20038;-67
2023/01/13 12:02:50;;;;;;;41.17;9.30;;;;;;;;;;5049103;28;20028;-68
2023/01/13 12:05:16;;;;;;;58.75;10.88;;;;;;;;;;5046322;28;20060;-68
2023/01/13 12:08:01;;;;;;;48.08;9.80;;;;;;;;;;5043169;28;20487;-67
2023/01/13 12:10:28;;;;;;;124.80;22.92;;;;;;;;;;5052172;28;20035;-68
2023/01/13 12:13:00;;;;;;;86.82;15.88;;;;;;;;;;5048353;28;20437;-67
2023/01/13 12:15:35;;;;;;;87.15;16.05;;;;;;;;;;5043671;28;20040;-67
2023/01/13 12:18:16;;;;;;;46.72;11.32;;;;;;;;;;5042169;28;20437;-67
2023/01/13 12:21:02;;;;;;;86.07;18.02;;;;;;;;;;5044636;28;20054;-67
2023/01/13 12:23:32;;;;;;;38.20;9.45;;;;;;;;;;5049439;28;20027;-67
2023/01/13 12:26:00;;;;;;;21.63;6.20;;;;;;;;;;5047713;28;20433;-67
2023/01/13 12:28:41;;;;;;;27.77;7.32;;;;;;;;;;5021864;28;20115;-67
2023/01/13 12:31:08;;;;;;;17.83;7.10;;;;;;;;;;5028663;28;20031;-68
2023/01/13 12:33:40;;;;;;;16.92;5.50;;;;;;;;;;5056668;28;20600;-67
2023/01/13 12:36:27;;;;;;;23.45;5.95;;;;;;;;;;5053626;28;20071;-67
2023/01/13 12:39:12;;;;;;;15.05;5.43;;;;;;;;;;5052540;28;20024;-66
2023/01/13 12:44:15;;;;;;;19.60;5.45;;;;;;;;;;5057431;28;20029;-67
2023/01/13 12:44:24;;;;;;;21.08;6.97;;;;;;;;;;5052247;28;20024;-68
2023/01/13 12:46:54;;;;;;;16.70;6.35;;;;;;;;;;5055218;28;20093;-67
2023/01/13 12:49:30;;;;;;;15.13;5.43;;;;;;;;;;5052232;28;20398;-67
2023/01/13 12:51:56;;;;;;;18.25;6.40;;;;;;;;;;5054758;28;20036;-69
2023/01/13 12:54:34;;;;;;;15.18;4.57;;;;;;;;;;5051945;28;20043;-67
2023/01/13 12:57:00;;;;;;;13.48;4.07;;;;;;;;;;5048609;28;20154;-68
2023/01/13 12:59:27;;;;;;;10.75;3.72;;;;;;;;;;5049456;28;20596;-69
2023/01/13 13:02:08;;;;;;;12.07;3.63;;;;;;;;;;5055464;28;20193;-68
2023/01/13 13:04:45;;;;;;;14.23;4.05;;;;;;;;;;5034753;28;20032;-68
2023/01/13 13:07:30;;;;;;;14.13;4.80;;;;;;;;;;5009830;28;20654;-68
2023/01/13 13:10:02;;;;;;;15.20;5.63;;;;;;;;;;5012846;28;20770;-68
2023/01/13 13:15:21;;;;;;;13.60;4.85;;;;;;;;;;5009631;28;20614;-68
2023/01/13 13:17:59;;;;;;;14.95;6.18;;;;;;;;;;5012446;28;20035;-67
2023/01/13 13:20:44;;;;;;;12.65;5.63;;;;;;;;;;5014301;28;20067;-69
2023/01/13 13:23:39;;;;;;;16.98;5.00;;;;;;;;;;5027444;28;20023;-69
2023/01/13 13:26:18;;;;;;;13.77;5.15;;;;;;;;;;5042117;28;20079;-69
2023/01/13 13:29:08;;;;;;;14.10;6.03;;;;;;;;;;5045977;28;20573;-68
2023/01/13 13:31:42;;;;;;;15.75;6.05;;;;;;;;;;5051121;28;20525;-67
2023/01/13 13:34:11;;;;;;;12.88;5.07;;;;;;;;;;5039065;28;20331;-68
2023/01/13 13:36:40;;;;;;;13.25;5.50;;;;;;;;;;5046717;28;20195;-68
2023/01/13 13:47:45;;;;;;;15.40;5.35;;;;;;;;;;5047214;28;20063;-66
2023/01/13 13:50:20;;;;;;;21.00;5.40;;;;;;;;;;5042532;28;20267;-69
2023/01/13 13:52:54;;;;;;;18.33;5.25;;;;;;;;;;5055023;28;20483;-69
2023/01/13 13:55:25;;;;;;;17.45;5.93;;;;;;;;;;5041055;28;20157;-67
2023/01/13 13:57:52;;;;;;;21.02;5.22;;;;;;;;;;5042528;28;20020;-68
2023/01/13 14:00:20;;;;;;;15.82;5.15;;;;;;;;;;5046909;28;20558;-68
2023/01/13 14:02:48;;;;;;;20.90;5.78;;;;;;;;;;5046983;28;20024;-68
2023/01/13 14:05:20;;;;;;;15.25;5.75;;;;;;;;;;5043593;28;20607;-67
2023/01/13 14:07:48;;;;;;;19.02;5.30;;;;;;;;;;5040803;28;20149;-68
2023/01/13 14:10:24;;;;;;;17.42;5.95;;;;;;;;;;5042608;28;20074;-67
2023/01/13 14:12:51;;;;;;;;;;;;;;;;;;5045615;28;20028;-69
2023/01/13 14:15:24;;;;;;;14.35;5.28;;;;;;;;;;5042307;28;20064;-67
2023/01/13 14:17:50;;;;;;;12.52;5.03;;;;;;;;;;5042831;28;20407;-67
2023/01/13 14:20:18;;;;;;;16.05;5.18;;;;;;;;;;5036165;28;20037;-68
2023/01/13 14:22:47;;;;;;;14.13;5.03;;;;;;;;;;5043040;28;20121;-67
2023/01/13 14:25:30;;;;;;;12.32;4.68;;;;;;;;;;5042676;28;20495;-68
2023/01/13 14:27:58;;;;;;;12.82;4.78;;;;;;;;;;5042755;28;21294;-68
2023/01/13 14:30:26;;;;;;;13.57;4.45;;;;;;;;;;5041795;28;20024;-67
2023/01/13 14:32:53;;;;;;;12.10;4.07;;;;;;;;;;5039428;28;20127;-68
2023/01/13 14:35:19;;;;;;;10.48;3.85;;;;;;;;;;5038933;28;20104;-67
2023/01/13 14:37:47;;;;;;;12.13;3.90;;;;;;;;;;5044114;28;20029;-68
2023/01/13 14:40:32;;;;;;;10.50;3.45;;;;;;;;;;5040665;28;20280;-68
2023/01/13 14:42:59;;;;;;;10.52;3.92;;;;;;;;;;5048362;28;20024;-67
2023/01/13 14:45:25;;;;;;;12.73;3.72;;;;;;;;;;5046513;28;20356;-69
2023/01/13 14:47:52;;;;;;;20.10;4.45;;;;;;;;;;5048888;28;20037;-67
2023/01/13 14:50:28;;;;;;;18.33;4.35;;;;;;;;;;5039234;28;20379;-70
2023/01/13 14:52:56;;;;;;;11.73;4.10;;;;;;;;;;5045698;28;20169;-69
2023/01/13 14:55:37;;;;;;;14.48;4.70;;;;;;;;;;5033458;28;20685;-68
2023/01/13 14:58:22;;;;;;;12.27;4.30;;;;;;;;;;5039707;28;20703;-67
2023/01/13 15:00:49;;;;;;;11.98;4.03;;;;;;;;;;5042228;28;20024;-68
2023/01/13 15:03:19;;;;;;;14.13;4.68;;;;;;;;;;5036371;28;20511;-68
2023/01/13 15:05:48;;;;;;;17.13;5.55;;;;;;;;;;5050642;28;20151;-67
2023/01/13 15:08:14;;;;;;;10.73;3.78;;;;;;;;;;5038357;28;20040;-67
2023/01/13 15:10:48;;;;;;;14.02;4.10;;;;;;;;;;5042031;28;20038;-68
2023/01/13 15:13:23;;;;;;;13.10;3.88;;;;;;;;;;5040026;28;20040;-67
2023/01/13 15:15:51;;;;;;;10.53;3.87;;;;;;;;;;5046388;28;20032;-69
2023/01/13 15:18:17;;;;;;;12.68;4.72;;;;;;;;;;5043054;28;20052;-68
2023/01/13 15:20:44;;;;;;;14.38;5.10;;;;;;;;;;5045895;28;20126;-67
2023/01/13 15:23:10;;;;;;;11.30;3.70;;;;;;;;;;5041570;28;20108;-68
2023/01/13 15:25:41;;;;;;;12.63;4.30;;;;;;;;;;5044510;28;20020;-68
2023/01/13 15:28:11;;;;;;;17.85;5.20;;;;;;;;;;5046387;28;20074;-67
2023/01/13 15:30:37;;;;;;;12.00;3.90;;;;;;;;;;5051254;28;20078;-67
2023/01/13 15:33:04;;;;;;;13.93;4.10;;;;;;;;;;5044688;28;20742;-67
2023/01/13 15:35:31;;;;;;;14.48;4.13;;;;;;;;;;5053752;28;20411;-67